createdAt,value
2023-03-24T00:01:17.706Z,69.72
2023-03-24T00:03:44.136Z,69.89
2023-03-24T00:06:11.136Z,69.90
2023-03-24T00:08:37.437Z,70.01
2023-03-24T00:11:05.665Z,70.13
2023-03-24T00:13:33.148Z,70.09
2023-03-24T00:15:59.517Z,70.10
2023-03-24T00:18:26.325Z,70.28
2023-03-24T00:20:53.051Z,70.32
2023-03-24T00:23:19.382Z,70.31
2023-03-24T00:25:45.786Z,70.39
2023-03-24T00:28:12.088Z,70.38
2023-03-24T00:30:40.939Z,70.41
2023-03-24T00:33:07.328Z,70.31
2023-03-24T00:35:33.740Z,70.42
2023-03-24T00:38:00.116Z,70.38
2023-03-24T00:40:27.273Z,70.41
2023-03-24T00:42:53.612Z,70.55
2023-03-24T00:45:20.873Z,70.62
2023-03-24T00:47:48.067Z,70.63
2023-03-24T00:50:15.901Z,70.63
2023-03-24T00:52:42.699Z,70.75
2023-03-24T00:55:10.424Z,70.85
2023-03-24T00:57:37.038Z,70.75
2023-03-24T01:00:05.374Z,70.86
2023-03-24T01:02:31.734Z,70.88
2023-03-24T01:04:58.869Z,70.94
2023-03-24T01:07:26.712Z,70.86
2023-03-24T01:09:53.419Z,71.02
2023-03-24T01:12:20.183Z,71.13
2023-03-24T01:14:46.578Z,71.21
2023-03-24T01:17:12.931Z,71.31
2023-03-24T01:19:39.296Z,71.41
2023-03-24T01:22:05.779Z,71.61
2023-03-24T01:24:32.656Z,71.61
2023-03-24T01:26:59.142Z,71.72
2023-03-24T01:29:25.445Z,71.79
2023-03-24T01:31:51.934Z,71.80
2023-03-24T01:34:18.288Z,71.71
2023-03-24T01:36:44.684Z,71.91
2023-03-24T01:39:11.085Z,71.98
2023-03-24T01:41:39.143Z,71.98
2023-03-24T01:44:27.366Z,71.97
2023-03-24T01:46:54.438Z,72.17
2023-03-24T01:49:21.978Z,72.22
2023-03-24T01:51:50.106Z,72.19
2023-03-24T01:54:16.452Z,72.49
2023-03-24T01:56:45.312Z,72.64
2023-03-24T01:59:17.286Z,72.63
2023-03-24T02:01:52.998Z,72.73
2023-03-24T02:04:44.277Z,72.74
2023-03-24T02:07:37.626Z,72.72
2023-03-24T02:10:12.785Z,73.09
2023-03-24T02:12:40.075Z,73.11
2023-03-24T02:15:07.538Z,73.07
2023-03-24T02:17:34.740Z,73.28
2023-03-24T02:20:20.053Z,73.31
2023-03-24T02:23:05.500Z,73.46
2023-03-24T02:25:55.097Z,73.42
2023-03-24T02:28:30.660Z,73.42
2023-03-24T02:31:12.632Z,73.42
2023-03-24T02:33:53.559Z,73.57
2023-03-24T02:36:43.322Z,73.83
2023-03-24T02:39:28.259Z,73.86
2023-03-24T02:41:57.683Z,74.06
2023-03-24T02:44:53.677Z,74.24
2023-03-24T02:47:32.323Z,74.19
2023-03-24T02:49:58.629Z,74.35
2023-03-24T02:52:46.588Z,74.42
2023-03-24T02:55:19.929Z,74.47
2023-03-24T02:57:53.580Z,74.38
2023-03-24T03:00:44.270Z,74.50
2023-03-24T03:03:22.617Z,74.37
2023-03-24T03:05:55.856Z,74.43
2023-03-24T03:08:26.669Z,74.66
2023-03-24T03:10:54.277Z,74.58
2023-03-24T03:13:26.133Z,74.66
2023-03-24T03:15:55.777Z,74.60
2023-03-24T03:18:33.476Z,74.58
2023-03-24T03:21:03.928Z,74.77
2023-03-24T03:23:38.971Z,74.79
2023-03-24T03:26:09.422Z,75.00
2023-03-24T03:28:37.751Z,75.13
2023-03-24T03:31:10.105Z,75.12
2023-03-24T03:33:39.752Z,75.11
2023-03-24T03:36:08.956Z,75.46
2023-03-24T03:38:41.551Z,75.66
2023-03-24T03:41:07.961Z,75.89
2023-03-24T03:43:35.755Z,75.86
2023-03-24T03:46:03.401Z,76.28
2023-03-24T03:48:33.448Z,76.38
2023-03-24T03:51:12.384Z,76.28
2023-03-24T03:53:56.897Z,76.71
2023-03-24T03:56:25.190Z,76.92
2023-03-24T03:59:22.239Z,77.09
2023-03-24T04:01:48.887Z,77.44
2023-03-24T04:04:35.539Z,77.10
2023-03-24T04:07:39.090Z,77.18
2023-03-24T04:10:51.077Z,77.37
2023-03-24T04:13:30.311Z,77.57
2023-03-24T04:16:17.103Z,77.62
2023-03-24T04:19:07.125Z,77.85
2023-03-24T04:21:51.977Z,77.77
2023-03-24T04:24:28.286Z,78.18
2023-03-24T04:27:06.346Z,78.20
2023-03-24T04:29:38.431Z,78.65
2023-03-24T04:32:04.820Z,78.82
2023-03-24T04:34:31.306Z,79.16
2023-03-24T04:37:14.289Z,79.45
2023-03-24T04:40:00.962Z,79.60
2023-03-24T04:42:32.071Z,79.83
2023-03-24T04:44:59.195Z,80.01
2023-03-24T04:47:57.695Z,80.32
2023-03-24T04:50:30.962Z,80.36
2023-03-24T04:52:58.705Z,80.73
2023-03-24T04:55:46.788Z,81.13
2023-03-24T04:58:13.222Z,81.46
2023-03-24T05:00:40.904Z,81.39
2023-03-24T05:03:07.327Z,81.67
2023-03-24T05:05:33.981Z,81.86
2023-03-24T05:08:00.468Z,81.99
2023-03-24T05:10:27.859Z,82.10
2023-03-24T05:12:55.123Z,82.40
2023-03-24T05:15:43.502Z,82.61
2023-03-24T05:18:24.623Z,82.94
2023-03-24T05:20:50.966Z,82.90
2023-03-24T05:23:19.791Z,83.07
2023-03-24T05:25:47.171Z,83.27
2023-03-24T05:28:14.408Z,83.27
2023-03-24T05:30:40.775Z,83.38
2023-03-24T05:33:18.271Z,83.61
2023-03-24T05:35:44.856Z,83.61
2023-03-24T05:38:11.356Z,83.88
2023-03-24T05:40:39.350Z,83.81
2023-03-24T05:43:11.314Z,83.84
2023-03-24T05:45:40.957Z,84.07
2023-03-24T05:48:07.546Z,83.95
2023-03-24T05:51:03.259Z,84.19
2023-03-24T05:53:29.573Z,84.33
2023-03-24T05:56:09.067Z,84.29
2023-03-24T05:58:55.695Z,84.18
2023-03-24T06:01:22.748Z,84.58
2023-03-24T06:03:52.637Z,84.38
2023-03-24T06:06:19.093Z,84.55
2023-03-24T06:08:45.993Z,84.67
2023-03-24T06:11:13.063Z,84.66
2023-03-24T06:13:47.489Z,84.68
2023-03-24T06:16:13.870Z,84.91
2023-03-24T06:18:52.675Z,85.15
2023-03-24T06:21:39.089Z,85.10
2023-03-24T06:24:05.634Z,85.20
2023-03-24T06:26:32.624Z,85.31
2023-03-24T06:28:59.680Z,85.47
2023-03-24T06:31:29.885Z,85.59
2023-03-24T06:33:56.199Z,85.49
2023-03-24T06:36:22.571Z,85.45
2023-03-24T06:41:17.852Z,85.37
2023-03-24T06:43:44.546Z,85.02
2023-03-24T06:46:11.301Z,84.78
2023-03-24T06:48:39.601Z,84.24
2023-03-24T06:51:07.093Z,84.27
2023-03-24T06:53:33.813Z,83.83
2023-03-24T06:56:00.248Z,83.45
2023-03-24T06:58:29.296Z,82.88
2023-03-24T07:01:04.410Z,82.63
2023-03-24T07:03:49.386Z,82.46
2023-03-24T07:06:16.851Z,82.43
2023-03-24T07:08:43.582Z,81.69
2023-03-24T07:11:10.354Z,81.47
2023-03-24T07:13:38.557Z,81.08
2023-03-24T07:16:05.097Z,80.24
2023-03-24T07:18:32.573Z,79.65
2023-03-24T07:21:03.125Z,79.63
2023-03-24T07:23:29.966Z,79.26
2023-03-24T07:26:00.440Z,79.35
2023-03-24T07:28:35.774Z,79.01
2023-03-24T07:31:05.529Z,79.07
2023-03-24T07:33:32.335Z,78.45
2023-03-24T07:35:58.718Z,78.00
2023-03-24T07:38:25.602Z,77.48
2023-03-24T07:40:54.020Z,77.31
2023-03-24T07:43:20.663Z,76.92
2023-03-24T07:46:15.908Z,76.91
2023-03-24T07:48:42.339Z,77.02
2023-03-24T07:51:09.144Z,76.52
2023-03-24T07:53:50.225Z,76.44
2023-03-24T07:56:35.081Z,76.21
2023-03-24T07:59:01.823Z,76.22
2023-03-24T08:01:31.486Z,76.24
2023-03-24T08:04:01.034Z,76.01
2023-03-24T08:06:57.305Z,76.10
2023-03-24T08:09:23.768Z,76.04
2023-03-24T08:11:50.089Z,75.73
2023-03-24T08:14:16.591Z,75.60
2023-03-24T08:16:42.899Z,75.34
2023-03-24T08:19:10.846Z,75.41
2023-03-24T08:21:37.228Z,75.29
2023-03-24T08:24:03.595Z,74.84
2023-03-24T08:26:29.939Z,74.75
2023-03-24T08:28:56.304Z,74.35
2023-03-24T08:31:22.772Z,73.71
2023-03-24T08:33:49.225Z,72.78
2023-03-24T08:36:15.867Z,72.18
2023-03-24T08:38:42.197Z,71.72
2023-03-24T08:41:08.638Z,71.63
2023-03-24T08:43:35.506Z,71.38
2023-03-24T08:46:02.263Z,70.86
2023-03-24T08:48:29.372Z,70.68
2023-03-24T08:50:57.299Z,69.95
2023-03-24T08:53:23.747Z,69.56
2023-03-24T08:55:50.236Z,69.26
2023-03-24T08:58:18.119Z,67.81
2023-03-24T09:00:44.987Z,67.71
2023-03-24T09:03:33.033Z,66.81
2023-03-24T09:06:02.743Z,66.72
2023-03-24T09:08:29.313Z,65.89
2023-03-24T09:11:07.280Z,63.58
2023-03-24T09:13:33.990Z,63.74
2023-03-24T09:16:01.362Z,63.26
2023-03-24T09:18:28.764Z,62.66
2023-03-24T09:21:00.862Z,60.97
2023-03-24T09:23:28.858Z,60.52
2023-03-24T09:25:55.259Z,60.31
2023-03-24T09:28:21.872Z,60.18
2023-03-24T09:30:49.291Z,58.78
2023-03-24T09:33:15.966Z,58.44
2023-03-24T09:35:42.402Z,57.44
2023-03-24T09:38:08.757Z,57.43
2023-03-24T09:40:36.392Z,57.15
2023-03-24T09:43:04.796Z,56.14
2023-03-24T09:45:33.382Z,54.86
2023-03-24T09:48:02.544Z,55.25
2023-03-24T09:50:41.252Z,55.84
2023-03-24T09:53:26.195Z,55.10
2023-03-24T09:55:52.627Z,54.26
2023-03-24T09:58:19.461Z,54.27
2023-03-24T10:00:46.367Z,52.89
2023-03-24T10:03:22.804Z,52.38
2023-03-24T10:05:53.493Z,51.94
2023-03-24T10:08:36.520Z,51.98
2023-03-24T10:11:06.862Z,50.00
2023-03-24T10:13:47.401Z,49.63
2023-03-24T10:16:25.615Z,49.69
2023-03-24T10:18:58.697Z,49.04
2023-03-24T10:21:25.935Z,48.60
2023-03-24T10:24:11.235Z,46.51
2023-03-24T10:26:56.313Z,46.62
2023-03-24T10:29:26.060Z,44.56
2023-03-24T10:31:56.914Z,43.98
2023-03-24T10:34:26.532Z,44.28
2023-03-24T10:36:53.210Z,44.05
2023-03-24T10:39:22.675Z,42.92
2023-03-24T10:41:53.552Z,43.36
2023-03-24T10:44:20.549Z,43.11
2023-03-24T10:46:50.177Z,42.86
2023-03-24T10:49:18.676Z,43.03
2023-03-24T10:51:46.820Z,43.02
2023-03-24T10:54:20.559Z,43.72
2023-03-24T10:57:07.356Z,42.97
2023-03-24T10:59:45.027Z,43.01
2023-03-24T11:02:25.616Z,43.05
2023-03-24T11:04:56.997Z,42.75
2023-03-24T11:07:34.852Z,42.94
2023-03-24T11:10:04.953Z,43.07
2023-03-24T11:12:32.947Z,43.76
2023-03-24T11:15:21.137Z,43.30
2023-03-24T11:17:54.834Z,42.92
2023-03-24T11:20:29.210Z,42.69
2023-03-24T11:22:56.793Z,42.15
2023-03-24T11:25:36.611Z,42.66
2023-03-24T11:28:15.509Z,42.26
2023-03-24T11:30:49.523Z,43.11
2023-03-24T11:33:34.829Z,42.25
2023-03-24T11:36:08.366Z,41.76
2023-03-24T11:38:35.198Z,41.20
2023-03-24T11:41:02.206Z,41.12
2023-03-24T11:43:28.564Z,40.35
2023-03-24T11:46:16.717Z,39.36
2023-03-24T11:48:43.208Z,39.45
2023-03-24T11:51:09.611Z,38.66
2023-03-24T11:53:43.973Z,38.68
2023-03-24T11:56:16.709Z,38.49
2023-03-24T11:58:42.963Z,37.51
2023-03-24T12:01:16.109Z,37.64
2023-03-24T12:03:42.684Z,36.66
2023-03-24T12:06:24.472Z,36.71
2023-03-24T12:09:06.362Z,37.20
2023-03-24T12:11:39.092Z,36.65
2023-03-24T12:14:05.757Z,36.33
2023-03-24T12:16:40.302Z,37.27
2023-03-24T12:19:16.261Z,36.47
2023-03-24T12:22:01.647Z,36.14
2023-03-24T12:24:28.124Z,36.33
2023-03-24T12:26:59.323Z,35.81
2023-03-24T12:29:26.061Z,35.07
2023-03-24T12:31:55.471Z,35.61
2023-03-24T12:34:40.520Z,35.26
2023-03-24T12:37:13.399Z,35.25
2023-03-24T12:39:52.242Z,36.03
2023-03-24T12:42:20.002Z,35.63
2023-03-24T12:45:02.355Z,35.69
2023-03-24T12:47:31.561Z,34.44
2023-03-24T12:50:00.673Z,35.66
2023-03-24T12:52:39.214Z,36.43
2023-03-24T12:55:09.162Z,36.34
2023-03-24T12:57:48.325Z,36.35
2023-03-24T13:00:19.191Z,36.47
2023-03-24T13:02:49.365Z,37.26
2023-03-24T13:05:21.016Z,37.37
2023-03-24T13:07:48.648Z,37.54
2023-03-24T13:10:15.280Z,37.39
2023-03-24T13:12:47.908Z,38.15
2023-03-24T13:15:31.172Z,38.48
2023-03-24T13:17:57.648Z,39.01
2023-03-24T13:20:35.382Z,39.09
2023-03-24T13:23:22.016Z,39.41
2023-03-24T13:25:51.995Z,39.96
2023-03-24T13:28:24.475Z,39.94
2023-03-24T13:30:51.276Z,40.27
2023-03-24T13:33:21.262Z,40.09
2023-03-24T13:36:03.072Z,40.47
2023-03-24T13:39:02.231Z,40.56
2023-03-24T13:41:31.444Z,41.42
2023-03-24T13:43:57.744Z,41.57
2023-03-24T13:46:24.283Z,41.73
2023-03-24T13:48:53.354Z,41.86
2023-03-24T13:51:19.901Z,42.24
2023-03-24T13:54:00.927Z,42.69
2023-03-24T13:56:35.164Z,43.41
2023-03-24T13:59:01.891Z,43.48
2023-03-24T14:01:38.845Z,43.92
2023-03-24T14:04:14.662Z,43.71
2023-03-24T14:06:44.800Z,44.41
2023-03-24T14:09:19.606Z,44.95
2023-03-24T14:12:08.508Z,45.17
2023-03-24T14:14:36.362Z,45.71
2023-03-24T14:17:05.769Z,45.75
2023-03-24T14:19:36.530Z,45.71
2023-03-24T14:22:08.891Z,45.36
2023-03-24T14:24:35.809Z,45.72
2023-03-24T14:27:20.551Z,45.94
2023-03-24T14:29:48.701Z,46.39
2023-03-24T14:32:20.142Z,46.52
2023-03-24T14:34:51.153Z,46.70
2023-03-24T14:37:17.744Z,46.82
2023-03-24T14:39:45.972Z,47.16
2023-03-24T14:42:31.252Z,47.60
2023-03-24T14:44:58.882Z,47.15
2023-03-24T14:47:29.171Z,47.73
2023-03-24T14:49:57.080Z,47.88
2023-03-24T14:52:29.804Z,48.04
2023-03-24T14:55:01.642Z,47.65
2023-03-24T14:57:34.022Z,47.39
2023-03-24T15:00:00.357Z,47.83
2023-03-24T15:02:27.230Z,47.89
2023-03-24T15:05:13.060Z,48.10
2023-03-24T15:07:40.630Z,47.60
2023-03-24T15:10:13.249Z,47.77
2023-03-24T15:12:46.750Z,47.90
2023-03-24T15:15:18.208Z,48.11
2023-03-24T15:17:44.973Z,48.11
2023-03-24T15:20:26.915Z,48.33
2023-03-24T15:22:53.668Z,48.09
2023-03-24T15:25:26.437Z,48.52
2023-03-24T15:27:53.311Z,49.14
2023-03-24T15:30:20.470Z,49.40
2023-03-24T15:32:46.962Z,50.04
2023-03-24T15:35:14.942Z,50.53
2023-03-24T15:37:42.619Z,51.16
2023-03-24T15:40:27.954Z,51.71
2023-03-24T15:42:55.438Z,52.06
2023-03-24T15:45:24.903Z,52.21
2023-03-24T15:47:52.800Z,52.91
2023-03-24T15:50:31.041Z,53.60
2023-03-24T15:52:58.288Z,54.24
2023-03-24T15:55:30.699Z,54.72
2023-03-24T15:57:58.658Z,55.24
2023-03-24T16:00:30.945Z,55.78
2023-03-24T16:03:00.856Z,56.50
2023-03-24T16:05:29.036Z,57.30
2023-03-24T16:08:00.367Z,57.86
2023-03-24T16:10:29.641Z,58.54
2023-03-24T16:12:55.978Z,59.23
2023-03-24T16:15:22.366Z,60.07
2023-03-24T16:17:49.450Z,60.74
2023-03-24T16:20:19.601Z,61.64
2023-03-24T16:22:45.900Z,62.36
2023-03-24T16:25:13.335Z,63.10
2023-03-24T16:27:39.624Z,63.56
2023-03-24T16:30:21.738Z,64.59
2023-03-24T16:32:48.251Z,65.99
2023-03-24T16:35:14.650Z,66.32
2023-03-24T16:37:41.078Z,67.00
2023-03-24T16:40:31.036Z,67.64
2023-03-24T16:42:57.376Z,68.78
2023-03-24T16:45:23.817Z,69.42
2023-03-24T16:47:50.282Z,69.82
2023-03-24T16:50:23.405Z,70.33
2023-03-24T16:52:49.929Z,71.02
2023-03-24T16:55:16.201Z,71.74
2023-03-24T16:57:42.996Z,72.16
2023-03-24T17:00:09.649Z,72.95
2023-03-24T17:02:36.591Z,73.37
2023-03-24T17:05:29.392Z,73.51
2023-03-24T17:07:57.114Z,74.40
2023-03-24T17:10:24.195Z,74.76
2023-03-24T17:12:52.178Z,74.58
2023-03-24T17:15:21.594Z,75.09
2023-03-24T17:17:48.114Z,75.11
2023-03-24T17:20:15.089Z,74.73
2023-03-24T17:22:42.384Z,74.88
2023-03-24T17:25:10.033Z,74.92
2023-03-24T17:27:36.450Z,74.93
2023-03-24T17:30:03.499Z,74.76
2023-03-24T17:32:30.520Z,74.63
2023-03-24T17:34:57.432Z,74.52
2023-03-24T17:37:26.589Z,74.62
2023-03-24T17:39:53.442Z,74.55
2023-03-24T17:42:19.867Z,74.94
2023-03-24T17:44:46.203Z,74.89
2023-03-24T17:47:12.605Z,75.21
2023-03-24T17:49:39.716Z,75.35
2023-03-24T17:52:06.150Z,75.34
2023-03-24T17:54:32.800Z,75.73
2023-03-24T17:56:59.496Z,75.94
2023-03-24T17:59:25.938Z,76.01
2023-03-24T18:01:52.343Z,76.14
2023-03-24T18:04:18.911Z,76.31
2023-03-24T18:06:45.260Z,76.30
2023-03-24T18:09:11.734Z,76.41
2023-03-24T18:11:39.382Z,76.70
2023-03-24T18:14:05.858Z,77.02
2023-03-24T18:16:32.234Z,76.71
2023-03-24T18:18:58.924Z,77.05
2023-03-24T18:21:25.409Z,77.34
2023-03-24T18:23:51.842Z,77.19
2023-03-24T18:26:18.820Z,77.44
2023-03-24T18:28:45.282Z,77.54
2023-03-24T18:31:12.946Z,77.87
2023-03-24T18:33:39.263Z,77.91
2023-03-24T18:36:05.817Z,78.02
2023-03-24T18:38:32.189Z,78.24
2023-03-24T18:40:59.508Z,78.58
2023-03-24T18:43:25.997Z,78.53
2023-03-24T18:45:53.025Z,78.51
2023-03-24T18:48:19.783Z,78.49
2023-03-24T18:50:46.317Z,78.71
2023-03-24T18:53:12.868Z,78.75
2023-03-24T18:55:46.561Z,78.75
2023-03-24T18:58:13.960Z,78.88
2023-03-24T19:00:48.845Z,78.65
2023-03-24T19:03:15.900Z,78.58
2023-03-24T19:05:42.433Z,78.75
2023-03-24T19:08:08.806Z,78.93
2023-03-24T19:10:36.032Z,79.12
2023-03-24T19:13:03.179Z,79.07
2023-03-24T19:15:30.625Z,79.26
2023-03-24T19:17:58.982Z,79.43
2023-03-24T19:20:26.170Z,79.47
2023-03-24T19:22:53.204Z,79.67
2023-03-24T19:25:20.187Z,79.80
2023-03-24T19:27:46.897Z,79.88
2023-03-24T19:30:13.530Z,79.76
2023-03-24T19:32:40.271Z,79.73
2023-03-24T19:35:07.040Z,80.07
2023-03-24T19:37:33.402Z,80.31
2023-03-24T19:40:00.240Z,80.55
2023-03-24T19:42:26.750Z,80.56
2023-03-24T19:44:53.160Z,80.70
2023-03-24T19:47:19.699Z,80.98
2023-03-24T19:49:46.054Z,81.20
2023-03-24T19:52:13.642Z,81.11
2023-03-24T19:54:41.022Z,81.19
2023-03-24T19:57:07.441Z,81.32
2023-03-24T19:59:33.940Z,81.41
2023-03-24T20:02:00.309Z,81.46
2023-03-24T20:04:26.678Z,81.59
2023-03-24T20:06:53.058Z,81.80
2023-03-24T20:09:19.459Z,81.87
2023-03-24T20:11:45.817Z,81.91
2023-03-24T20:14:12.213Z,82.02
2023-03-24T20:16:39.466Z,82.14
2023-03-24T20:19:05.984Z,82.29
2023-03-24T20:21:34.808Z,82.70
2023-03-24T20:24:01.144Z,82.60
2023-03-24T20:26:27.674Z,82.58
2023-03-24T20:28:54.275Z,82.72
2023-03-24T20:31:20.593Z,82.74
2023-03-24T20:33:46.955Z,82.65
2023-03-24T20:36:13.331Z,82.70
2023-03-24T20:38:39.750Z,82.70
2023-03-24T20:41:06.549Z,82.61
2023-03-24T20:43:34.701Z,82.78
2023-03-24T20:46:01.553Z,82.82
2023-03-24T20:48:27.944Z,82.83
2023-03-24T20:50:56.638Z,82.91
2023-03-24T20:53:23.011Z,83.03
2023-03-24T20:56:15.773Z,83.16
2023-03-24T20:58:43.271Z,83.21
2023-03-24T21:01:13.799Z,83.11
2023-03-24T21:03:40.086Z,83.35
2023-03-24T21:06:07.474Z,83.41
2023-03-24T21:08:33.818Z,83.35
2023-03-24T21:11:00.843Z,83.45
2023-03-24T21:13:36.930Z,83.62
2023-03-24T21:16:07.408Z,83.59
2023-03-24T21:18:35.600Z,83.87
2023-03-24T21:21:02.001Z,83.77
2023-03-24T21:23:29.323Z,83.99
2023-03-24T21:25:55.704Z,83.93
2023-03-24T21:28:22.049Z,83.88
2023-03-24T21:30:48.414Z,83.78
2023-03-24T21:33:14.845Z,83.93
2023-03-24T21:35:42.919Z,83.94
2023-03-24T21:38:09.439Z,84.10
2023-03-24T21:40:35.793Z,84.16
2023-03-24T21:43:02.256Z,84.11
2023-03-24T21:45:28.517Z,84.36
2023-03-24T21:47:55.505Z,84.33
2023-03-24T21:50:22.336Z,84.43
2023-03-24T21:52:53.199Z,84.42
2023-03-24T21:55:20.461Z,84.36
2023-03-24T21:57:47.665Z,84.51
2023-03-24T22:00:15.960Z,84.46
2023-03-24T22:02:43.615Z,84.55
2023-03-24T22:05:13.386Z,84.48
2023-03-24T22:07:40.747Z,84.42
2023-03-24T22:10:08.045Z,84.45
2023-03-24T22:12:34.908Z,84.48
2023-03-24T22:15:01.625Z,84.26
2023-03-24T22:17:28.741Z,84.32
2023-03-24T22:19:55.079Z,84.28
2023-03-24T22:22:21.475Z,84.17
2023-03-24T22:24:47.810Z,84.32
2023-03-24T22:27:14.125Z,84.27
2023-03-24T22:29:40.447Z,84.22
2023-03-24T22:32:06.871Z,84.22
2023-03-24T22:34:33.176Z,84.21
2023-03-24T22:36:59.455Z,84.19
2023-03-24T22:39:25.782Z,84.11
2023-03-24T22:41:52.156Z,84.33
2023-03-24T22:44:18.491Z,84.40
2023-03-24T22:46:44.811Z,84.54
2023-03-24T22:49:11.095Z,84.69
2023-03-24T22:51:37.419Z,84.75
2023-03-24T22:54:03.765Z,85.01
2023-03-24T22:56:30.091Z,84.97
2023-03-24T22:58:56.503Z,85.07
2023-03-24T23:01:22.960Z,85.06
2023-03-24T23:03:51.382Z,85.13
2023-03-24T23:06:17.683Z,85.15
2023-03-24T23:08:44.129Z,85.33
2023-03-24T23:11:10.971Z,85.81
2023-03-24T23:13:37.243Z,86.18
2023-03-24T23:16:04.670Z,86.60
2023-03-24T23:18:31.162Z,87.01
2023-03-24T23:21:04.942Z,87.26
2023-03-24T23:23:31.466Z,87.34
2023-03-24T23:25:57.780Z,87.51
2023-03-24T23:28:24.255Z,87.52
2023-03-24T23:30:51.143Z,87.61
2023-03-24T23:33:17.468Z,87.92
2023-03-24T23:35:43.990Z,88.13
2023-03-24T23:38:10.541Z,88.34
2023-03-24T23:40:36.918Z,88.51
2023-03-24T23:43:03.248Z,88.56
2023-03-24T23:45:29.682Z,88.82
2023-03-24T23:47:56.317Z,88.84
2023-03-24T23:50:22.901Z,88.91
2023-03-24T23:52:49.280Z,88.93
2023-03-24T23:55:16.362Z,89.20
2023-03-24T23:57:43.216Z,89.27
